Hadley, Kentucky
Current Conditions -  °F | °C
As of 9:53 PM on Tuesday 27 Jan 2015 (Local Time) from KBWG Reporting Station
Overcast Overcast  
Wind Chill: 33°   Ceiling: 1700
Heat Index: 33°   Visibility: 8mi
Dew Point: 29°   Wind: 3mph
Humidity: 85%   Direction: 360°N
Pressure: 30.24"   Gusts: NA
Location:  37.06°N, 86.61°W
Report Text: KBWG 280353Z AUTO 36003KT 8SM BKN017 OVC040 01/M02 A3024 RMK AO2 SLP244 T00061017
Loading
Personal Weather Stations






























Interactive Weather Map New forecast layout! Learn more

10-Day Weather Forecast

Advertisements
Track Severe Weather on mobile